sensor_id;sensor_type;location;lat;lon;timestamp;temperature;humidity
49413;DHT22;35493;50.276;9.372;2023-03-13T00:01:13;6.40;90.20
49413;DHT22;35493;50.276;9.372;2023-03-13T00:03:47;6.30;90.20
49413;DHT22;35493;50.276;9.372;2023-03-13T00:06:33;6.30;90.20
49413;DHT22;35493;50.276;9.372;2023-03-13T00:09:32;6.30;90.10
49413;DHT22;35493;50.276;9.372;2023-03-13T00:12:05;6.40;90.10
49413;DHT22;35493;50.276;9.372;2023-03-13T00:14:39;6.40;90.30
49413;DHT22;35493;50.276;9.372;2023-03-13T00:17:12;6.40;90.30
49413;DHT22;35493;50.276;9.372;2023-03-13T00:19:52;6.40;90.30
49413;DHT22;35493;50.276;9.372;2023-03-13T00:22:27;6.40;90.20
49413;DHT22;35493;50.276;9.372;2023-03-13T00:25:08;6.40;90.20
49413;DHT22;35493;50.276;9.372;2023-03-13T00:27:42;6.40;90.20
49413;DHT22;35493;50.276;9.372;2023-03-13T00:30:15;6.40;90.30
49413;DHT22;35493;50.276;9.372;2023-03-13T00:32:49;6.40;90.40
49413;DHT22;35493;50.276;9.372;2023-03-13T00:35:22;6.40;90.30
49413;DHT22;35493;50.276;9.372;2023-03-13T00:37:55;6.40;90.40
49413;DHT22;35493;50.276;9.372;2023-03-13T00:40:23;6.40;90.30
49413;DHT22;35493;50.276;9.372;2023-03-13T00:42:57;6.50;90.40
49413;DHT22;35493;50.276;9.372;2023-03-13T00:45:32;6.50;90.30
49413;DHT22;35493;50.276;9.372;2023-03-13T00:48:05;6.50;90.30
49413;DHT22;35493;50.276;9.372;2023-03-13T00:50:38;6.50;90.20
49413;DHT22;35493;50.276;9.372;2023-03-13T00:53:11;6.50;90.10
49413;DHT22;35493;50.276;9.372;2023-03-13T00:55:53;6.50;90.10
49413;DHT22;35493;50.276;9.372;2023-03-13T00:58:29;6.60;90.00
49413;DHT22;35493;50.276;9.372;2023-03-13T01:01:07;6.50;90.00
49413;DHT22;35493;50.276;9.372;2023-03-13T01:03:42;6.60;90.10
49413;DHT22;35493;50.276;9.372;2023-03-13T01:06:17;6.60;90.00
49413;DHT22;35493;50.276;9.372;2023-03-13T01:08:54;6.60;90.00
49413;DHT22;35493;50.276;9.372;2023-03-13T01:11:31;6.60;89.90
49413;DHT22;35493;50.276;9.372;2023-03-13T01:14:07;6.60;90.10
49413;DHT22;35493;50.276;9.372;2023-03-13T01:16:41;6.60;89.90
49413;DHT22;35493;50.276;9.372;2023-03-13T01:19:22;6.60;89.90
49413;DHT22;35493;50.276;9.372;2023-03-13T01:21:55;6.60;90.00
49413;DHT22;35493;50.276;9.372;2023-03-13T01:24:36;6.70;90.30
49413;DHT22;35493;50.276;9.372;2023-03-13T01:27:10;6.70;90.30
49413;DHT22;35493;50.276;9.372;2023-03-13T01:29:44;6.70;90.00
49413;DHT22;35493;50.276;9.372;2023-03-13T01:32:17;6.70;90.20
49413;DHT22;35493;50.276;9.372;2023-03-13T01:34:50;6.70;90.30
49413;DHT22;35493;50.276;9.372;2023-03-13T01:37:24;6.70;90.20
49413;DHT22;35493;50.276;9.372;2023-03-13T01:39:58;6.80;90.00
49413;DHT22;35493;50.276;9.372;2023-03-13T01:42:26;6.80;90.10
49413;DHT22;35493;50.276;9.372;2023-03-13T01:45:00;6.80;90.10
49413;DHT22;35493;50.276;9.372;2023-03-13T01:47:33;6.80;90.00
49413;DHT22;35493;50.276;9.372;2023-03-13T01:50:10;6.80;90.00
49413;DHT22;35493;50.276;9.372;2023-03-13T01:52:50;6.90;90.00
49413;DHT22;35493;50.276;9.372;2023-03-13T01:55:28;6.90;90.10
49413;DHT22;35493;50.276;9.372;2023-03-13T01:58:02;7.00;90.40
49413;DHT22;35493;50.276;9.372;2023-03-13T02:00:36;7.00;90.30
49413;DHT22;35493;50.276;9.372;2023-03-13T02:03:13;7.10;90.20
49413;DHT22;35493;50.276;9.372;2023-03-13T02:05:48;7.10;90.10
49413;DHT22;35493;50.276;9.372;2023-03-13T02:08:24;7.20;90.10
49413;DHT22;35493;50.276;9.372;2023-03-13T02:11:06;7.30;90.10
49413;DHT22;35493;50.276;9.372;2023-03-13T02:13:42;7.40;90.00
49413;DHT22;35493;50.276;9.372;2023-03-13T02:16:16;7.40;89.90
49413;DHT22;35493;50.276;9.372;2023-03-13T02:18:58;7.50;89.80
49413;DHT22;35493;50.276;9.372;2023-03-13T02:21:39;7.40;89.90
49413;DHT22;35493;50.276;9.372;2023-03-13T02:24:28;7.50;89.80
49413;DHT22;35493;50.276;9.372;2023-03-13T02:27:04;7.50;89.70
49413;DHT22;35493;50.276;9.372;2023-03-13T02:29:40;7.60;89.80
49413;DHT22;35493;50.276;9.372;2023-03-13T02:32:14;7.60;89.80
49413;DHT22;35493;50.276;9.372;2023-03-13T02:34:51;7.60;89.70
49413;DHT22;35493;50.276;9.372;2023-03-13T02:37:27;7.60;89.60
49413;DHT22;35493;50.276;9.372;2023-03-13T02:40:07;7.60;89.60
49413;DHT22;35493;50.276;9.372;2023-03-13T02:42:44;7.50;89.70
49413;DHT22;35493;50.276;9.372;2023-03-13T02:45:18;7.50;89.80
49413;DHT22;35493;50.276;9.372;2023-03-13T02:47:51;7.50;89.80
49413;DHT22;35493;50.276;9.372;2023-03-13T02:50:24;7.50;90.00
49413;DHT22;35493;50.276;9.372;2023-03-13T02:53:00;7.40;90.00
49413;DHT22;35493;50.276;9.372;2023-03-13T02:55:36;7.50;90.00
49413;DHT22;35493;50.276;9.372;2023-03-13T02:58:12;7.50;90.20
49413;DHT22;35493;50.276;9.372;2023-03-13T03:00:46;7.60;90.40
49413;DHT22;35493;50.276;9.372;2023-03-13T03:03:19;7.70;90.50
49413;DHT22;35493;50.276;9.372;2023-03-13T03:05:53;7.70;90.50
49413;DHT22;35493;50.276;9.372;2023-03-13T03:08:27;7.80;90.70
49413;DHT22;35493;50.276;9.372;2023-03-13T03:11:01;7.70;90.80
49413;DHT22;35493;50.276;9.372;2023-03-13T03:13:35;7.70;90.90
49413;DHT22;35493;50.276;9.372;2023-03-13T03:16:11;7.70;91.00
49413;DHT22;35493;50.276;9.372;2023-03-13T03:18:46;7.70;91.30
49413;DHT22;35493;50.276;9.372;2023-03-13T03:21:26;7.70;91.40
49413;DHT22;35493;50.276;9.372;2023-03-13T03:23:59;7.70;91.40
49413;DHT22;35493;50.276;9.372;2023-03-13T03:26:32;7.70;91.50
49413;DHT22;35493;50.276;9.372;2023-03-13T03:29:13;7.70;91.60
49413;DHT22;35493;50.276;9.372;2023-03-13T03:31:50;7.60;91.60
49413;DHT22;35493;50.276;9.372;2023-03-13T03:34:24;7.60;91.70
49413;DHT22;35493;50.276;9.372;2023-03-13T03:36:58;7.70;91.70
49413;DHT22;35493;50.276;9.372;2023-03-13T03:39:31;7.60;91.60
49413;DHT22;35493;50.276;9.372;2023-03-13T03:41:59;7.60;91.60
49413;DHT22;35493;50.276;9.372;2023-03-13T03:44:33;7.60;91.50
49413;DHT22;35493;50.276;9.372;2023-03-13T03:47:08;7.60;91.50
49413;DHT22;35493;50.276;9.372;2023-03-13T03:49:45;7.60;91.40
49413;DHT22;35493;50.276;9.372;2023-03-13T03:52:18;7.60;91.40
49413;DHT22;35493;50.276;9.372;2023-03-13T03:54:52;7.60;91.50
49413;DHT22;35493;50.276;9.372;2023-03-13T03:57:25;7.60;91.50
49413;DHT22;35493;50.276;9.372;2023-03-13T03:59:59;7.60;91.50
49413;DHT22;35493;50.276;9.372;2023-03-13T04:02:38;7.60;91.60
49413;DHT22;35493;50.276;9.372;2023-03-13T04:05:13;7.60;91.60
49413;DHT22;35493;50.276;9.372;2023-03-13T04:07:47;7.60;91.70
49413;DHT22;35493;50.276;9.372;2023-03-13T04:10:21;7.60;91.60
49413;DHT22;35493;50.276;9.372;2023-03-13T04:12:54;7.60;91.60
49413;DHT22;35493;50.276;9.372;2023-03-13T04:15:28;7.60;91.60
49413;DHT22;35493;50.276;9.372;2023-03-13T04:18:02;7.60;91.60
49413;DHT22;35493;50.276;9.372;2023-03-13T04:20:36;7.70;91.70
49413;DHT22;35493;50.276;9.372;2023-03-13T04:23:17;7.60;91.60
49413;DHT22;35493;50.276;9.372;2023-03-13T04:25:51;7.70;91.70
49413;DHT22;35493;50.276;9.372;2023-03-13T04:28:24;7.70;91.90
49413;DHT22;35493;50.276;9.372;2023-03-13T04:30:59;7.70;92.00
49413;DHT22;35493;50.276;9.372;2023-03-13T04:34:02;7.70;92.00
49413;DHT22;35493;50.276;9.372;2023-03-13T04:36:48;7.70;92.20
49413;DHT22;35493;50.276;9.372;2023-03-13T04:39:40;7.70;92.20
49413;DHT22;35493;50.276;9.372;2023-03-13T04:42:33;7.70;92.20
49413;DHT22;35493;50.276;9.372;2023-03-13T04:45:33;7.70;92.50
49413;DHT22;35493;50.276;9.372;2023-03-13T04:48:21;7.70;92.70
49413;DHT22;35493;50.276;9.372;2023-03-13T04:51:01;7.80;93.00
49413;DHT22;35493;50.276;9.372;2023-03-13T04:53:47;7.80;93.00
49413;DHT22;35493;50.276;9.372;2023-03-13T04:56:33;7.90;92.90
49413;DHT22;35493;50.276;9.372;2023-03-13T04:59:25;7.90;93.10
49413;DHT22;35493;50.276;9.372;2023-03-13T05:02:14;7.90;93.40
49413;DHT22;35493;50.276;9.372;2023-03-13T05:05:08;8.00;93.30
49413;DHT22;35493;50.276;9.372;2023-03-13T05:08:12;8.00;93.50
49413;DHT22;35493;50.276;9.372;2023-03-13T05:10:56;8.00;93.40
49413;DHT22;35493;50.276;9.372;2023-03-13T05:13:45;8.00;93.50
49413;DHT22;35493;50.276;9.372;2023-03-13T05:16:42;8.00;93.60
49413;DHT22;35493;50.276;9.372;2023-03-13T05:19:45;8.10;93.60
49413;DHT22;35493;50.276;9.372;2023-03-13T05:22:39;8.10;93.70
49413;DHT22;35493;50.276;9.372;2023-03-13T05:25:40;8.10;93.60
49413;DHT22;35493;50.276;9.372;2023-03-13T05:28:21;8.10;93.70
49413;DHT22;35493;50.276;9.372;2023-03-13T05:31:08;8.20;93.80
49413;DHT22;35493;50.276;9.372;2023-03-13T05:33:52;8.20;93.80
49413;DHT22;35493;50.276;9.372;2023-03-13T05:36:44;8.30;93.90
49413;DHT22;35493;50.276;9.372;2023-03-13T05:39:48;8.30;94.00
49413;DHT22;35493;50.276;9.372;2023-03-13T05:42:47;8.40;94.00
49413;DHT22;35493;50.276;9.372;2023-03-13T05:45:39;8.40;94.00
49413;DHT22;35493;50.276;9.372;2023-03-13T05:48:29;8.50;94.10
49413;DHT22;35493;50.276;9.372;2023-03-13T05:51:11;8.50;94.10
49413;DHT22;35493;50.276;9.372;2023-03-13T05:53:54;8.50;94.10
49413;DHT22;35493;50.276;9.372;2023-03-13T05:56:50;8.60;94.20
49413;DHT22;35493;50.276;9.372;2023-03-13T05:59:43;8.60;94.10
49413;DHT22;35493;50.276;9.372;2023-03-13T06:02:37;8.60;94.20
49413;DHT22;35493;50.276;9.372;2023-03-13T06:05:15;8.60;94.20
49413;DHT22;35493;50.276;9.372;2023-03-13T06:07:49;8.60;94.20
49413;DHT22;35493;50.276;9.372;2023-03-13T06:10:22;8.60;94.20
49413;DHT22;35493;50.276;9.372;2023-03-13T06:12:56;8.60;94.20
49413;DHT22;35493;50.276;9.372;2023-03-13T06:15:33;8.70;94.30
49413;DHT22;35493;50.276;9.372;2023-03-13T06:18:17;8.70;94.30
49413;DHT22;35493;50.276;9.372;2023-03-13T06:20:58;8.70;94.30
49413;DHT22;35493;50.276;9.372;2023-03-13T06:23:32;8.70;94.30
49413;DHT22;35493;50.276;9.372;2023-03-13T06:26:05;8.70;94.30
49413;DHT22;35493;50.276;9.372;2023-03-13T06:28:33;8.70;94.40
49413;DHT22;35493;50.276;9.372;2023-03-13T06:31:07;8.70;94.40
49413;DHT22;35493;50.276;9.372;2023-03-13T06:33:41;8.80;94.40
49413;DHT22;35493;50.276;9.372;2023-03-13T06:36:14;8.80;94.50
49413;DHT22;35493;50.276;9.372;2023-03-13T06:38:47;8.80;94.50
49413;DHT22;35493;50.276;9.372;2023-03-13T06:41:20;8.90;94.50
49413;DHT22;35493;50.276;9.372;2023-03-13T06:43:55;8.90;94.50
49413;DHT22;35493;50.276;9.372;2023-03-13T06:46:23;8.90;94.50
49413;DHT22;35493;50.276;9.372;2023-03-13T06:48:57;9.00;94.50
49413;DHT22;35493;50.276;9.372;2023-03-13T06:51:31;9.00;94.60
49413;DHT22;35493;50.276;9.372;2023-03-13T06:54:05;9.10;94.60
49413;DHT22;35493;50.276;9.372;2023-03-13T06:56:39;9.20;94.60
49413;DHT22;35493;50.276;9.372;2023-03-13T06:59:13;9.20;94.60
49413;DHT22;35493;50.276;9.372;2023-03-13T07:01:47;9.20;94.60
49413;DHT22;35493;50.276;9.372;2023-03-13T07:04:20;9.20;94.60
49413;DHT22;35493;50.276;9.372;2023-03-13T07:06:53;9.20;94.50
49413;DHT22;35493;50.276;9.372;2023-03-13T07:09:26;9.20;94.50
49413;DHT22;35493;50.276;9.372;2023-03-13T07:12:00;9.20;94.50
49413;DHT22;35493;50.276;9.372;2023-03-13T07:14:35;9.30;94.60
49413;DHT22;35493;50.276;9.372;2023-03-13T07:17:09;9.30;94.60
49413;DHT22;35493;50.276;9.372;2023-03-13T07:19:42;9.30;94.60
49413;DHT22;35493;50.276;9.372;2023-03-13T07:22:22;9.40;94.60
49413;DHT22;35493;50.276;9.372;2023-03-13T07:24:55;9.40;94.70
49413;DHT22;35493;50.276;9.372;2023-03-13T07:27:22;9.50;94.70
49413;DHT22;35493;50.276;9.372;2023-03-13T07:29:57;9.50;94.60
49413;DHT22;35493;50.276;9.372;2023-03-13T07:32:30;9.60;94.40
49413;DHT22;35493;50.276;9.372;2023-03-13T07:35:05;9.70;94.40
49413;DHT22;35493;50.276;9.372;2023-03-13T07:37:38;9.70;94.20
49413;DHT22;35493;50.276;9.372;2023-03-13T07:40:11;9.70;94.20
49413;DHT22;35493;50.276;9.372;2023-03-13T07:42:45;9.70;94.10
49413;DHT22;35493;50.276;9.372;2023-03-13T07:45:19;9.80;94.10
49413;DHT22;35493;50.276;9.372;2023-03-13T07:47:53;9.80;94.00
49413;DHT22;35493;50.276;9.372;2023-03-13T07:50:26;9.80;93.90
49413;DHT22;35493;50.276;9.372;2023-03-13T07:52:59;9.80;94.00
49413;DHT22;35493;50.276;9.372;2023-03-13T07:55:32;9.90;94.00
49413;DHT22;35493;50.276;9.372;2023-03-13T07:58:05;9.90;94.00
49413;DHT22;35493;50.276;9.372;2023-03-13T08:00:39;9.90;94.00
49413;DHT22;35493;50.276;9.372;2023-03-13T08:03:13;9.90;94.00
49413;DHT22;35493;50.276;9.372;2023-03-13T08:05:40;9.90;94.00
49413;DHT22;35493;50.276;9.372;2023-03-13T08:08:13;9.90;94.00
49413;DHT22;35493;50.276;9.372;2023-03-13T08:10:46;9.90;94.00
49413;DHT22;35493;50.276;9.372;2023-03-13T08:13:19;9.90;94.00
49413;DHT22;35493;50.276;9.372;2023-03-13T08:16:00;10.00;94.00
49413;DHT22;35493;50.276;9.372;2023-03-13T08:18:35;10.00;93.90
49413;DHT22;35493;50.276;9.372;2023-03-13T08:21:17;10.00;93.80
49413;DHT22;35493;50.276;9.372;2023-03-13T08:23:52;10.10;93.80
49413;DHT22;35493;50.276;9.372;2023-03-13T08:26:34;10.10;93.60
49413;DHT22;35493;50.276;9.372;2023-03-13T08:29:09;10.20;93.30
49413;DHT22;35493;50.276;9.372;2023-03-13T08:31:46;10.30;93.20
49413;DHT22;35493;50.276;9.372;2023-03-13T08:34:19;10.30;93.10
49413;DHT22;35493;50.276;9.372;2023-03-13T08:36:52;10.30;93.10
49413;DHT22;35493;50.276;9.372;2023-03-13T08:39:25;10.30;93.20
49413;DHT22;35493;50.276;9.372;2023-03-13T08:41:58;10.40;93.00
49413;DHT22;35493;50.276;9.372;2023-03-13T08:44:31;10.40;92.90
49413;DHT22;35493;50.276;9.372;2023-03-13T08:47:07;10.40;93.00
49413;DHT22;35493;50.276;9.372;2023-03-13T08:49:40;10.50;92.90
49413;DHT22;35493;50.276;9.372;2023-03-13T08:52:13;10.50;92.80
49413;DHT22;35493;50.276;9.372;2023-03-13T08:54:47;10.50;92.80
49413;DHT22;35493;50.276;9.372;2023-03-13T08:57:21;10.60;92.80
49413;DHT22;35493;50.276;9.372;2023-03-13T08:59:54;10.60;92.70
49413;DHT22;35493;50.276;9.372;2023-03-13T09:02:29;10.70;92.80
49413;DHT22;35493;50.276;9.372;2023-03-13T09:05:02;10.70;92.80
49413;DHT22;35493;50.276;9.372;2023-03-13T09:07:36;10.70;92.70
49413;DHT22;35493;50.276;9.372;2023-03-13T09:10:10;10.80;92.70
49413;DHT22;35493;50.276;9.372;2023-03-13T09:12:43;10.80;92.70
49413;DHT22;35493;50.276;9.372;2023-03-13T09:15:18;10.80;92.70
49413;DHT22;35493;50.276;9.372;2023-03-13T09:17:52;10.80;92.60
49413;DHT22;35493;50.276;9.372;2023-03-13T09:20:33;10.80;92.70
49413;DHT22;35493;50.276;9.372;2023-03-13T09:23:06;10.90;92.70
49413;DHT22;35493;50.276;9.372;2023-03-13T09:25:47;10.90;92.70
49413;DHT22;35493;50.276;9.372;2023-03-13T09:28:20;10.90;92.60
49413;DHT22;35493;50.276;9.372;2023-03-13T09:30:54;11.00;92.50
49413;DHT22;35493;50.276;9.372;2023-03-13T09:33:29;11.00;92.50
49413;DHT22;35493;50.276;9.372;2023-03-13T09:36:04;11.00;92.60
49413;DHT22;35493;50.276;9.372;2023-03-13T09:38:37;11.00;92.60
49413;DHT22;35493;50.276;9.372;2023-03-13T09:41:20;11.00;92.50
49413;DHT22;35493;50.276;9.372;2023-03-13T09:43:59;11.00;92.60
49413;DHT22;35493;50.276;9.372;2023-03-13T09:46:38;11.00;92.70
49413;DHT22;35493;50.276;9.372;2023-03-13T09:49:26;11.00;92.80
49413;DHT22;35493;50.276;9.372;2023-03-13T09:52:12;11.00;92.80
49413;DHT22;35493;50.276;9.372;2023-03-13T09:54:50;11.10;92.80
49413;DHT22;35493;50.276;9.372;2023-03-13T09:57:30;11.10;92.70
49413;DHT22;35493;50.276;9.372;2023-03-13T10:00:10;11.20;92.50
49413;DHT22;35493;50.276;9.372;2023-03-13T10:02:48;11.20;92.30
49413;DHT22;35493;50.276;9.372;2023-03-13T10:05:26;11.40;92.20
49413;DHT22;35493;50.276;9.372;2023-03-13T10:08:09;11.40;91.80
49413;DHT22;35493;50.276;9.372;2023-03-13T10:10:47;11.60;91.60
49413;DHT22;35493;50.276;9.372;2023-03-13T10:13:27;11.70;91.20
49413;DHT22;35493;50.276;9.372;2023-03-13T10:16:05;11.70;91.00
49413;DHT22;35493;50.276;9.372;2023-03-13T10:18:44;11.80;90.90
49413;DHT22;35493;50.276;9.372;2023-03-13T10:21:32;11.80;90.80
49413;DHT22;35493;50.276;9.372;2023-03-13T10:24:13;11.90;90.70
49413;DHT22;35493;50.276;9.372;2023-03-13T10:26:48;11.90;90.60
49413;DHT22;35493;50.276;9.372;2023-03-13T10:29:23;11.90;90.60
49413;DHT22;35493;50.276;9.372;2023-03-13T10:31:57;11.90;90.50
49413;DHT22;35493;50.276;9.372;2023-03-13T10:34:49;11.90;90.60
49413;DHT22;35493;50.276;9.372;2023-03-13T10:37:27;11.90;90.40
49413;DHT22;35493;50.276;9.372;2023-03-13T10:40:13;11.90;90.40
49413;DHT22;35493;50.276;9.372;2023-03-13T10:42:46;11.80;90.40
49413;DHT22;35493;50.276;9.372;2023-03-13T10:45:21;11.80;90.40
49413;DHT22;35493;50.276;9.372;2023-03-13T10:47:56;11.90;90.30
49413;DHT22;35493;50.276;9.372;2023-03-13T10:50:34;11.90;90.20
49413;DHT22;35493;50.276;9.372;2023-03-13T10:53:20;11.90;90.10
49413;DHT22;35493;50.276;9.372;2023-03-13T10:55:56;11.90;89.90
49413;DHT22;35493;50.276;9.372;2023-03-13T10:58:29;12.00;89.60
49413;DHT22;35493;50.276;9.372;2023-03-13T11:01:20;12.00;89.60
49413;DHT22;35493;50.276;9.372;2023-03-13T11:03:55;12.10;89.50
49413;DHT22;35493;50.276;9.372;2023-03-13T11:06:29;12.10;89.30
49413;DHT22;35493;50.276;9.372;2023-03-13T11:09:10;12.10;89.40
49413;DHT22;35493;50.276;9.372;2023-03-13T11:11:47;12.10;89.30
49413;DHT22;35493;50.276;9.372;2023-03-13T11:14:23;12.00;89.30
49413;DHT22;35493;50.276;9.372;2023-03-13T11:17:03;12.10;89.00
49413;DHT22;35493;50.276;9.372;2023-03-13T11:20:06;12.20;89.00
49413;DHT22;35493;50.276;9.372;2023-03-13T11:22:56;12.20;88.80
49413;DHT22;35493;50.276;9.372;2023-03-13T11:25:39;12.30;88.40
49413;DHT22;35493;50.276;9.372;2023-03-13T11:28:28;12.40;88.40
49413;DHT22;35493;50.276;9.372;2023-03-13T11:31:11;12.30;88.30
49413;DHT22;35493;50.276;9.372;2023-03-13T11:33:48;12.40;88.30
49413;DHT22;35493;50.276;9.372;2023-03-13T11:36:32;12.40;88.20
49413;DHT22;35493;50.276;9.372;2023-03-13T11:39:21;12.50;87.90
49413;DHT22;35493;50.276;9.372;2023-03-13T11:42:07;12.60;88.00
49413;DHT22;35493;50.276;9.372;2023-03-13T11:44:49;12.60;88.00
49413;DHT22;35493;50.276;9.372;2023-03-13T11:47:49;12.70;87.50
49413;DHT22;35493;50.276;9.372;2023-03-13T11:50:31;12.80;87.40
49413;DHT22;35493;50.276;9.372;2023-03-13T11:53:29;12.80;87.30
49413;DHT22;35493;50.276;9.372;2023-03-13T11:56:12;12.70;87.30
49413;DHT22;35493;50.276;9.372;2023-03-13T11:59:01;12.70;87.10
49413;DHT22;35493;50.276;9.372;2023-03-13T12:01:40;12.70;87.50
49413;DHT22;35493;50.276;9.372;2023-03-13T12:04:19;12.70;87.40
49413;DHT22;35493;50.276;9.372;2023-03-13T12:06:59;12.70;87.30
49413;DHT22;35493;50.276;9.372;2023-03-13T12:09:40;12.70;87.40
49413;DHT22;35493;50.276;9.372;2023-03-13T12:12:18;12.80;87.20
49413;DHT22;35493;50.276;9.372;2023-03-13T12:14:58;12.70;87.10
49413;DHT22;35493;50.276;9.372;2023-03-13T12:17:34;12.70;87.10
49413;DHT22;35493;50.276;9.372;2023-03-13T12:20:14;12.70;86.70
49413;DHT22;35493;50.276;9.372;2023-03-13T12:23:06;12.80;86.90
49413;DHT22;35493;50.276;9.372;2023-03-13T12:25:46;12.80;86.90
49413;DHT22;35493;50.276;9.372;2023-03-13T12:28:27;12.80;86.90
49413;DHT22;35493;50.276;9.372;2023-03-13T12:31:10;12.80;86.70
49413;DHT22;35493;50.276;9.372;2023-03-13T12:33:49;12.80;86.80
49413;DHT22;35493;50.276;9.372;2023-03-13T12:36:30;12.90;86.50
49413;DHT22;35493;50.276;9.372;2023-03-13T12:39:13;12.90;86.60
49413;DHT22;35493;50.276;9.372;2023-03-13T12:41:56;13.00;86.50
49413;DHT22;35493;50.276;9.372;2023-03-13T12:44:39;12.90;86.50
49413;DHT22;35493;50.276;9.372;2023-03-13T12:47:17;13.00;86.40
49413;DHT22;35493;50.276;9.372;2023-03-13T12:50:19;12.90;86.20
49413;DHT22;35493;50.276;9.372;2023-03-13T12:53:18;12.90;86.40
49413;DHT22;35493;50.276;9.372;2023-03-13T12:56:26;12.90;86.40
49413;DHT22;35493;50.276;9.372;2023-03-13T12:59:03;12.90;86.00
49413;DHT22;35493;50.276;9.372;2023-03-13T13:01:40;12.90;86.40
49413;DHT22;35493;50.276;9.372;2023-03-13T13:04:18;13.00;85.60
49413;DHT22;35493;50.276;9.372;2023-03-13T13:06:54;13.10;85.80
49413;DHT22;35493;50.276;9.372;2023-03-13T13:09:29;13.20;85.80
49413;DHT22;35493;50.276;9.372;2023-03-13T13:12:17;13.20;85.30
49413;DHT22;35493;50.276;9.372;2023-03-13T13:15:10;13.20;85.50
49413;DHT22;35493;50.276;9.372;2023-03-13T13:18:09;13.20;86.00
49413;DHT22;35493;50.276;9.372;2023-03-13T13:20:47;13.20;85.80
49413;DHT22;35493;50.276;9.372;2023-03-13T13:23:30;13.10;86.30
49413;DHT22;35493;50.276;9.372;2023-03-13T13:32:34;12.90;86.60
49413;DHT22;35493;50.276;9.372;2023-03-13T13:35:31;12.90;87.10
49413;DHT22;35493;50.276;9.372;2023-03-13T13:38:28;12.90;87.00
49413;DHT22;35493;50.276;9.372;2023-03-13T13:41:25;12.80;87.10
49413;DHT22;35493;50.276;9.372;2023-03-13T13:44:25;12.70;87.10
49413;DHT22;35493;50.276;9.372;2023-03-13T13:46:59;12.70;87.20
49413;DHT22;35493;50.276;9.372;2023-03-13T13:49:35;12.80;87.30
49413;DHT22;35493;50.276;9.372;2023-03-13T13:52:36;12.80;87.30
49413;DHT22;35493;50.276;9.372;2023-03-13T13:55:39;12.90;87.30
49413;DHT22;35493;50.276;9.372;2023-03-13T13:58:18;12.90;86.80
49413;DHT22;35493;50.276;9.372;2023-03-13T14:00:54;13.00;87.00
49413;DHT22;35493;50.276;9.372;2023-03-13T14:03:30;13.00;86.80
49413;DHT22;35493;50.276;9.372;2023-03-13T14:06:15;13.10;87.30
49413;DHT22;35493;50.276;9.372;2023-03-13T14:08:53;13.10;87.30
49413;DHT22;35493;50.276;9.372;2023-03-13T14:11:34;13.10;87.30
49413;DHT22;35493;50.276;9.372;2023-03-13T14:14:12;13.10;87.40
49413;DHT22;35493;50.276;9.372;2023-03-13T14:16:48;13.10;87.40
49413;DHT22;35493;50.276;9.372;2023-03-13T14:19:27;13.10;87.40
49413;DHT22;35493;50.276;9.372;2023-03-13T14:22:10;13.10;87.80
49413;DHT22;35493;50.276;9.372;2023-03-13T14:24:56;13.10;87.90
49413;DHT22;35493;50.276;9.372;2023-03-13T14:27:30;13.10;88.10
49413;DHT22;35493;50.276;9.372;2023-03-13T14:30:06;13.00;87.90
49413;DHT22;35493;50.276;9.372;2023-03-13T14:32:40;13.00;88.20
49413;DHT22;35493;50.276;9.372;2023-03-13T14:35:16;12.90;87.70
49413;DHT22;35493;50.276;9.372;2023-03-13T14:38:01;12.90;87.90
49413;DHT22;35493;50.276;9.372;2023-03-13T14:40:37;13.00;87.80
49413;DHT22;35493;50.276;9.372;2023-03-13T14:43:20;12.90;87.30
49413;DHT22;35493;50.276;9.372;2023-03-13T14:45:54;12.90;87.40
49413;DHT22;35493;50.276;9.372;2023-03-13T14:48:30;12.90;87.60
49413;DHT22;35493;50.276;9.372;2023-03-13T14:51:08;12.90;87.40
49413;DHT22;35493;50.276;9.372;2023-03-13T14:53:53;12.90;87.60
49413;DHT22;35493;50.276;9.372;2023-03-13T14:56:35;12.90;87.60
49413;DHT22;35493;50.276;9.372;2023-03-13T14:59:16;12.90;88.00
49413;DHT22;35493;50.276;9.372;2023-03-13T15:01:58;12.80;88.00
49413;DHT22;35493;50.276;9.372;2023-03-13T15:04:53;12.80;87.80
49413;DHT22;35493;50.276;9.372;2023-03-13T15:07:36;12.80;87.80
49413;DHT22;35493;50.276;9.372;2023-03-13T15:10:20;12.80;88.20
49413;DHT22;35493;50.276;9.372;2023-03-13T15:12:53;13.00;87.40
49413;DHT22;35493;50.276;9.372;2023-03-13T15:15:28;13.20;86.70
49413;DHT22;35493;50.276;9.372;2023-03-13T15:18:01;13.20;86.20
49413;DHT22;35493;50.276;9.372;2023-03-13T15:20:34;13.30;86.20
49413;DHT22;35493;50.276;9.372;2023-03-13T15:23:14;13.30;85.70
49413;DHT22;35493;50.276;9.372;2023-03-13T15:25:48;13.40;85.50
49413;DHT22;35493;50.276;9.372;2023-03-13T15:28:22;13.30;85.40
49413;DHT22;35493;50.276;9.372;2023-03-13T15:30:57;13.40;85.00
49413;DHT22;35493;50.276;9.372;2023-03-13T15:33:30;13.40;84.80
49413;DHT22;35493;50.276;9.372;2023-03-13T15:36:05;13.40;84.60
49413;DHT22;35493;50.276;9.372;2023-03-13T15:38:38;13.40;84.80
49413;DHT22;35493;50.276;9.372;2023-03-13T15:41:12;13.40;84.90
49413;DHT22;35493;50.276;9.372;2023-03-13T15:43:45;13.30;85.10
49413;DHT22;35493;50.276;9.372;2023-03-13T15:46:25;13.40;84.50
49413;DHT22;35493;50.276;9.372;2023-03-13T15:48:59;13.40;84.60
49413;DHT22;35493;50.276;9.372;2023-03-13T15:51:32;13.30;84.80
49413;DHT22;35493;50.276;9.372;2023-03-13T15:54:05;13.40;84.70
49413;DHT22;35493;50.276;9.372;2023-03-13T15:56:38;13.50;85.10
49413;DHT22;35493;50.276;9.372;2023-03-13T15:59:14;13.60;84.80
49413;DHT22;35493;50.276;9.372;2023-03-13T16:01:50;13.30;85.20
49413;DHT22;35493;50.276;9.372;2023-03-13T16:04:23;13.00;86.70
49413;DHT22;35493;50.276;9.372;2023-03-13T16:06:56;12.70;87.50
49413;DHT22;35493;50.276;9.372;2023-03-13T16:09:30;12.70;88.10
49413;DHT22;35493;50.276;9.372;2023-03-13T16:12:04;12.70;88.30
49413;DHT22;35493;50.276;9.372;2023-03-13T16:14:38;12.70;88.70
49413;DHT22;35493;50.276;9.372;2023-03-13T16:17:15;12.60;88.70
49413;DHT22;35493;50.276;9.372;2023-03-13T16:19:48;12.60;88.60
49413;DHT22;35493;50.276;9.372;2023-03-13T16:22:21;12.50;88.30
49413;DHT22;35493;50.276;9.372;2023-03-13T16:25:01;12.30;88.30
49413;DHT22;35493;50.276;9.372;2023-03-13T16:27:35;12.20;88.60
49413;DHT22;35493;50.276;9.372;2023-03-13T16:30:16;12.20;88.20
49413;DHT22;35493;50.276;9.372;2023-03-13T16:32:51;12.20;88.00
49413;DHT22;35493;50.276;9.372;2023-03-13T16:35:28;12.10;87.80
49413;DHT22;35493;50.276;9.372;2023-03-13T16:38:01;12.00;88.10
49413;DHT22;35493;50.276;9.372;2023-03-13T16:40:35;12.00;88.20
49413;DHT22;35493;50.276;9.372;2023-03-13T16:43:11;11.90;88.20
49413;DHT22;35493;50.276;9.372;2023-03-13T16:45:44;11.90;88.30
49413;DHT22;35493;50.276;9.372;2023-03-13T16:48:21;11.90;88.60
49413;DHT22;35493;50.276;9.372;2023-03-13T16:50:54;11.80;89.00
49413;DHT22;35493;50.276;9.372;2023-03-13T16:53:27;11.80;89.20
49413;DHT22;35493;50.276;9.372;2023-03-13T16:56:00;11.70;89.30